Main page
METAR-TAF:

METAR-TAF

Airports :

Derry, Northern Ireland

City of Derry Airport

latitude: 55-03N, longitude: 007-09W, elevation: 9 m

Current weather observation

The report was made 10 hours and 26 minutes ago, at 15:50 UTC
Wind 6 kt from the South/Southwest
Temperature 6°C
Humidity 93%
Pressure 1019 hPa
Visibility 10 km or more
Few clouds at a height of 1400 ft
Scattered clouds at a height of 2700 ft
showers in vicinity

METAR: EGAE 161550Z 21006KT 9999 VCSH FEW014 SCT027 06/05 Q1019

Time: 02:16 (02:16 UTC)

Forecast

The report was made 15 hours and 19 minutes ago, at 10:57 UTC
Forecast valid from 16 at 12 UTC to 16 at 17 UTC
Wind 8 kt from the Southwest
Visibility 10 km or more
Few clouds at a height of 800 ft
Scattered clouds at a height of 3000 ft

TAF: EGAE 161057Z 1612/1617 23008KT 9999 FEW008 SCT030

Weather observations and forecasts of more than 4000 airports (METAR and TAF reports).

The available stations are represented by yellow and red dots on the map.

Hover mouse over dot to see the name of the station.

Then click to see weather observations and forecasts.

To change the map : click on the green buttons with a black cross to zoom in, on the green button with a dash to zoom out, or on the green arrows for adjacent maps.


METAR-TAF: